Time;durP1;ratioP1;P1;durP2;ratioP2;P2;SDS_P1;SDS_P2;PMS_P1;PMS_P2;Temp;Humidity;BMP_temperature;BMP_pressure;BME280_temperature;BME280_humidity;BME280_pressure;Samples;Min_cycle;Max_cycle;Signal;HPM_P1;HPM_P2
2021/05/25 00:00:21;;;;;;;14.15;4.70;;;;;;;;;;5069333;28;20025;-59
2021/05/25 00:02:48;;;;;;;14.05;4.70;;;;;;;;;;5051259;28;20024;-57
2021/05/25 00:05:16;;;;;;;14.45;4.80;;;;;;;;;;5069447;28;20024;-57
2021/05/25 00:07:42;;;;;;;15.43;4.80;;;;;;;;;;5068964;28;20103;-55
2021/05/25 00:10:09;;;;;;;14.93;4.80;;;;;;;;;;5051266;28;20124;-58
2021/05/25 00:12:35;;;;;;;14.63;5.05;;;;;;;;;;5068767;28;20021;-58
2021/05/25 00:15:02;;;;;;;13.52;4.65;;;;;;;;;;5051130;28;20032;-57
2021/05/25 00:17:28;;;;;;;15.40;4.82;;;;;;;;;;5051091;28;20028;-59
2021/05/25 00:19:54;;;;;;;13.18;4.00;;;;;;;;;;5050961;28;20086;-59
2021/05/25 00:22:20;;;;;;;13.65;4.30;;;;;;;;;;5068515;28;20020;-56
2021/05/25 00:24:48;;;;;;;11.70;4.28;;;;;;;;;;4702088;28;10000191;-58
2021/05/25 00:27:14;;;;;;;13.68;4.18;;;;;;;;;;5070963;28;20032;-59
2021/05/25 00:29:40;;;;;;;15.43;4.60;;;;;;;;;;5069696;28;20036;-54
2021/05/25 00:32:06;;;;;;;13.07;4.55;;;;;;;;;;5070143;28;20013;-57
2021/05/25 00:34:32;;;;;;;11.88;3.85;;;;;;;;;;5052793;28;20494;-58
2021/05/25 00:36:58;;;;;;;12.20;3.90;;;;;;;;;;5069591;28;20016;-59
2021/05/25 00:39:24;;;;;;;10.82;3.78;;;;;;;;;;5052754;28;20491;-56
2021/05/25 00:41:50;;;;;;;12.20;3.70;;;;;;;;;;5070158;28;20355;-56
2021/05/25 00:44:16;;;;;;;12.77;4.32;;;;;;;;;;5077406;22;20114;-61
2021/05/25 00:46:42;;;;;;;11.38;3.85;;;;;;;;;;5050820;28;20025;-61
2021/05/25 00:49:09;;;;;;;11.45;4.10;;;;;;;;;;5052839;28;20033;-63
2021/05/25 00:51:35;;;;;;;13.88;4.78;;;;;;;;;;5052465;28;20021;-63
2021/05/25 00:54:02;;;;;;;13.70;4.18;;;;;;;;;;5052632;28;20056;-63
2021/05/25 00:56:28;;;;;;;11.73;3.90;;;;;;;;;;5034729;28;20033;-64
2021/05/25 00:58:54;;;;;;;14.98;4.00;;;;;;;;;;5034396;28;20029;-63
2021/05/25 01:01:21;;;;;;;12.88;3.63;;;;;;;;;;5052950;28;20029;-64
2021/05/25 01:03:47;;;;;;;7.50;3.17;;;;;;;;;;5034741;28;20056;-63
2021/05/25 01:06:13;;;;;;;11.32;3.67;;;;;;;;;;5034622;28;20017;-62
2021/05/25 01:08:40;;;;;;;10.05;3.20;;;;;;;;;;5034586;28;20025;-62
2021/05/25 01:11:10;;;;;;;11.93;3.60;;;;;;;;;;5052600;28;20021;-63
2021/05/25 01:14:10;;;;;;;7.25;3.10;;;;;;;;;;5052115;28;20020;-62
2021/05/25 01:16:29;;;;;;;11.93;3.92;;;;;;;;;;5048274;28;20502;-63
2021/05/25 01:18:56;;;;;;;11.55;3.50;;;;;;;;;;5052097;28;20428;-63
2021/05/25 01:21:22;;;;;;;10.20;3.15;;;;;;;;;;5034210;28;20033;-63
2021/05/25 01:23:49;;;;;;;11.80;3.45;;;;;;;;;;5034354;28;20031;-61
2021/05/25 01:26:16;;;;;;;9.88;3.28;;;;;;;;;;5033926;28;20025;-63
2021/05/25 01:28:42;;;;;;;10.43;3.25;;;;;;;;;;5034167;28;20029;-60
2021/05/25 01:31:08;;;;;;;12.15;3.30;;;;;;;;;;5052651;28;20079;-61
2021/05/25 01:33:38;;;;;;;8.75;3.15;;;;;;;;;;5034482;28;20021;-62
2021/05/25 01:36:08;;;;;;;17.60;3.80;;;;;;;;;;5036725;28;20021;-62
2021/05/25 01:38:35;;;;;;;10.27;3.40;;;;;;;;;;5056598;28;20415;-62
2021/05/25 01:41:02;;;;;;;8.70;3.13;;;;;;;;;;5056720;28;20049;-63
2021/05/25 01:43:28;;;;;;;10.55;3.25;;;;;;;;;;5037954;28;20496;-62
2021/05/25 01:45:54;;;;;;;8.68;3.00;;;;;;;;;;5055809;28;20070;-61
2021/05/25 01:48:20;;;;;;;10.07;3.50;;;;;;;;;;5038620;28;20082;-62
2021/05/25 01:50:46;;;;;;;10.52;3.40;;;;;;;;;;5039143;28;20431;-64
2021/05/25 01:53:14;;;;;;;11.63;3.60;;;;;;;;;;5038912;28;20171;-63
2021/05/25 01:55:40;;;;;;;10.73;3.40;;;;;;;;;;5056817;28;20021;-64
2021/05/25 01:58:08;;;;;;;8.98;3.20;;;;;;;;;;5038314;28;20263;-63
2021/05/25 02:00:34;;;;;;;7.93;3.20;;;;;;;;;;5055919;28;20444;-63
2021/05/25 02:03:00;;;;;;;10.50;3.58;;;;;;;;;;5037619;28;20065;-64
2021/05/25 02:05:26;;;;;;;15.32;3.83;;;;;;;;;;5037876;28;20079;-64
2021/05/25 02:07:53;;;;;;;10.63;3.38;;;;;;;;;;5037694;28;20029;-63
2021/05/25 02:10:27;;;;;;;12.13;3.47;;;;;;;;;;5055490;28;20546;-62
2021/05/25 02:12:54;;;;;;;10.35;3.60;;;;;;;;;;5037256;28;20029;-62
2021/05/25 02:15:20;;;;;;;13.63;4.00;;;;;;;;;;5055596;28;20260;-63
2021/05/25 02:17:46;;;;;;;10.65;3.50;;;;;;;;;;5055393;28;20446;-62
2021/05/25 02:20:12;;;;;;;9.90;3.65;;;;;;;;;;5055332;28;20034;-62
2021/05/25 02:22:38;;;;;;;11.90;4.03;;;;;;;;;;5037040;28;20065;-63
2021/05/25 02:25:05;;;;;;;11.93;3.70;;;;;;;;;;5055098;28;20465;-62
2021/05/25 02:27:31;;;;;;;15.02;3.90;;;;;;;;;;5037171;28;20476;-63
2021/05/25 02:29:57;;;;;;;13.15;4.00;;;;;;;;;;5055018;28;20500;-64
2021/05/25 02:32:23;;;;;;;16.08;5.53;;;;;;;;;;5037135;28;20025;-62
2021/05/25 02:34:49;;;;;;;11.35;3.72;;;;;;;;;;5037275;28;20032;-63
2021/05/25 02:37:15;;;;;;;12.40;4.10;;;;;;;;;;5036952;28;20033;-63
2021/05/25 02:39:41;;;;;;;13.40;4.25;;;;;;;;;;5054900;28;20032;-61
2021/05/25 02:42:07;;;;;;;14.75;4.25;;;;;;;;;;5036712;28;20467;-63
2021/05/25 02:44:33;;;;;;;13.48;3.95;;;;;;;;;;5037163;28;20039;-62
2021/05/25 02:46:59;;;;;;;13.88;4.30;;;;;;;;;;5036807;28;20021;-63
2021/05/25 02:49:25;;;;;;;12.43;3.85;;;;;;;;;;5054668;28;20390;-60
2021/05/25 02:51:51;;;;;;;12.93;4.03;;;;;;;;;;5054617;28;20023;-63
2021/05/25 02:54:17;;;;;;;13.20;4.10;;;;;;;;;;5054710;28;20465;-62
2021/05/25 02:56:43;;;;;;;13.55;4.32;;;;;;;;;;5036655;28;20025;-63
2021/05/25 02:59:09;;;;;;;16.17;4.70;;;;;;;;;;5037010;28;20516;-61
2021/05/25 03:01:35;;;;;;;16.98;5.03;;;;;;;;;;5036336;28;20033;-63
2021/05/25 03:04:02;;;;;;;14.05;4.32;;;;;;;;;;5036716;28;20029;-64
2021/05/25 03:06:28;;;;;;;12.23;4.05;;;;;;;;;;5036628;28;20032;-63
2021/05/25 03:08:54;;;;;;;14.02;4.60;;;;;;;;;;5054555;28;20025;-64
2021/05/25 03:11:20;;;;;;;13.68;4.03;;;;;;;;;;5054418;28;20028;-64
2021/05/25 03:13:47;;;;;;;12.48;3.97;;;;;;;;;;5036409;28;20025;-62
2021/05/25 03:16:13;;;;;;;13.07;4.10;;;;;;;;;;5036648;28;20064;-63
2021/05/25 03:18:39;;;;;;;15.75;4.32;;;;;;;;;;5036570;28;20056;-62
2021/05/25 03:21:04;;;;;;;13.23;4.22;;;;;;;;;;5054367;28;20070;-63
2021/05/25 03:23:30;;;;;;;11.25;3.72;;;;;;;;;;5036043;28;20397;-63
2021/05/25 03:25:59;;;;;;;13.20;4.38;;;;;;;;;;5036584;28;20025;-62
2021/05/25 03:28:25;;;;;;;16.60;4.47;;;;;;;;;;5036067;28;20032;-62
2021/05/25 03:30:51;;;;;;;14.13;4.05;;;;;;;;;;5054214;28;20026;-63
2021/05/25 03:33:17;;;;;;;13.93;4.10;;;;;;;;;;5053784;28;20017;-63
2021/05/25 03:35:43;;;;;;;15.60;4.05;;;;;;;;;;5054140;28;20071;-62
2021/05/25 03:38:09;;;;;;;12.82;4.10;;;;;;;;;;5036456;28;20032;-62
2021/05/25 03:40:35;;;;;;;14.40;4.18;;;;;;;;;;5054396;28;20029;-63
2021/05/25 03:43:01;;;;;;;15.75;5.05;;;;;;;;;;5054017;28;20455;-63
2021/05/25 03:45:27;;;;;;;12.82;4.13;;;;;;;;;;5054746;28;20017;-64
2021/05/25 03:47:55;;;;;;;13.15;4.10;;;;;;;;;;5053983;28;20025;-61
2021/05/25 03:50:21;;;;;;;11.77;4.32;;;;;;;;;;5036529;28;20052;-64
2021/05/25 03:52:48;;;;;;;13.98;4.20;;;;;;;;;;5036001;28;20017;-64
2021/05/25 04:00:38;;;;;;;14.15;4.40;;;;;;;;;;5054037;28;20063;-61
2021/05/25 04:03:04;;;;;;;16.45;5.10;;;;;;;;;;5053115;28;20074;-63
2021/05/25 04:05:31;;;;;;;15.95;4.65;;;;;;;;;;5035395;28;20061;-63
2021/05/25 04:07:56;;;;;;;17.35;6.03;;;;;;;;;;5053270;28;20373;-63
2021/05/25 04:10:22;;;;;;;12.73;4.40;;;;;;;;;;5035318;28;20017;-62
2021/05/25 04:12:49;;;;;;;13.35;4.43;;;;;;;;;;5034959;28;20028;-63
2021/05/25 04:15:15;;;;;;;13.68;4.55;;;;;;;;;;5035428;28;20400;-64
2021/05/25 04:17:41;;;;;;;12.50;4.40;;;;;;;;;;5053026;28;20104;-63
2021/05/25 04:20:09;;;;;;;14.88;4.55;;;;;;;;;;5036193;28;20032;-62
2021/05/25 04:22:35;;;;;;;13.32;4.50;;;;;;;;;;5036727;28;20028;-64
2021/05/25 04:25:01;;;;;;;16.92;5.10;;;;;;;;;;5055296;28;20033;-64
2021/05/25 04:27:27;;;;;;;15.65;4.72;;;;;;;;;;5036726;28;20025;-63
2021/05/25 04:29:53;;;;;;;15.50;4.82;;;;;;;;;;5054771;28;20021;-64
2021/05/25 04:32:21;;;;;;;13.75;4.68;;;;;;;;;;5036791;28;20094;-64
2021/05/25 04:34:47;;;;;;;14.25;5.47;;;;;;;;;;5054510;28;20029;-63
2021/05/25 04:37:13;;;;;;;15.20;5.30;;;;;;;;;;5054789;28;20028;-63
2021/05/25 04:39:39;;;;;;;15.10;4.72;;;;;;;;;;5036441;28;20071;-63
2021/05/25 04:42:05;;;;;;;13.27;4.50;;;;;;;;;;5035718;28;20029;-63
2021/05/25 04:44:31;;;;;;;14.48;4.40;;;;;;;;;;5035823;28;20496;-63
2021/05/25 04:46:57;;;;;;;13.13;4.28;;;;;;;;;;5053976;28;20025;-63
2021/05/25 04:49:23;;;;;;;12.10;3.90;;;;;;;;;;5053639;28;20611;-62
2021/05/25 04:51:49;;;;;;;13.75;4.00;;;;;;;;;;5035183;28;20027;-61
2021/05/25 04:54:15;;;;;;;13.57;4.05;;;;;;;;;;5035408;28;20029;-63
2021/05/25 04:56:41;;;;;;;9.93;3.75;;;;;;;;;;5035434;28;20079;-63
2021/05/25 04:59:07;;;;;;;10.68;3.65;;;;;;;;;;5052763;28;20031;-63
2021/05/25 05:01:33;;;;;;;10.48;3.70;;;;;;;;;;5052146;28;20491;-63
2021/05/25 05:03:59;;;;;;;13.10;3.45;;;;;;;;;;5052034;28;20027;-63
2021/05/25 05:06:25;;;;;;;13.13;4.13;;;;;;;;;;5052338;28;20112;-63
2021/05/25 05:08:51;;;;;;;11.57;3.90;;;;;;;;;;5034237;28;20385;-63
2021/05/25 05:11:17;;;;;;;10.48;3.70;;;;;;;;;;5052278;28;20025;-62
2021/05/25 05:13:43;;;;;;;9.32;3.60;;;;;;;;;;5051945;28;20021;-63
2021/05/25 05:16:11;;;;;;;11.40;3.88;;;;;;;;;;5052081;28;20096;-63
2021/05/25 05:18:37;;;;;;;8.93;3.72;;;;;;;;;;5052091;28;20025;-63
2021/05/25 05:21:03;;;;;;;10.55;4.32;;;;;;;;;;5034179;28;20029;-62
2021/05/25 05:23:29;;;;;;;7.95;3.35;;;;;;;;;;5035218;28;20378;-61
2021/05/25 05:25:55;;;;;;;11.88;3.88;;;;;;;;;;5035095;28;20083;-63
2021/05/25 05:28:21;;;;;;;10.27;3.53;;;;;;;;;;5034685;28;20021;-63
2021/05/25 05:30:47;;;;;;;11.23;3.80;;;;;;;;;;5053184;28;20029;-62
2021/05/25 05:33:14;;;;;;;11.45;4.30;;;;;;;;;;5035745;28;20027;-62
2021/05/25 05:35:40;;;;;;;12.10;3.83;;;;;;;;;;5053835;28;20021;-63
2021/05/25 05:38:07;;;;;;;14.30;3.83;;;;;;;;;;5035673;28;20036;-64
2021/05/25 05:40:34;;;;;;;11.77;3.63;;;;;;;;;;5034585;28;20493;-63
2021/05/25 05:43:00;;;;;;;11.10;3.65;;;;;;;;;;5034377;28;20041;-64
2021/05/25 05:45:26;;;;;;;9.18;3.42;;;;;;;;;;5034595;28;20056;-63
2021/05/25 05:47:52;;;;;;;13.27;4.20;;;;;;;;;;5051822;28;20029;-63
2021/05/25 05:50:18;;;;;;;10.00;3.72;;;;;;;;;;5033455;28;20108;-63
2021/05/25 05:52:44;;;;;;;13.23;3.70;;;;;;;;;;5051380;28;20052;-63
2021/05/25 05:55:11;;;;;;;10.85;4.18;;;;;;;;;;5051705;28;20070;-63
2021/05/25 05:57:39;;;;;;;10.23;3.80;;;;;;;;;;5033807;28;20120;-62
2021/05/25 06:00:06;;;;;;;;;;;;;;;;;;5052034;28;20025;-62
2021/05/25 06:02:32;;;;;;;11.38;4.05;;;;;;;;;;5051671;28;20014;-61
2021/05/25 06:04:58;;;;;;;10.75;3.88;;;;;;;;;;5047696;28;20480;-63
2021/05/25 06:07:24;;;;;;;11.10;3.90;;;;;;;;;;5021728;28;20087;-62
2021/05/25 06:09:51;;;;;;;9.48;3.50;;;;;;;;;;5030378;28;20045;-63
2021/05/25 06:12:17;;;;;;;10.38;3.60;;;;;;;;;;5040629;28;20025;-63
2021/05/25 06:14:43;;;;;;;10.63;3.60;;;;;;;;;;5048380;28;20070;-63
2021/05/25 06:17:09;;;;;;;10.88;4.53;;;;;;;;;;5033520;28;20078;-62
2021/05/25 06:19:35;;;;;;;10.95;3.85;;;;;;;;;;5033734;28;20444;-63
2021/05/25 06:22:01;;;;;;;10.50;3.78;;;;;;;;;;5019578;28;20036;-61
2021/05/25 06:24:27;;;;;;;11.25;4.47;;;;;;;;;;5017276;28;20445;-63
2021/05/25 06:26:53;;;;;;;13.02;4.35;;;;;;;;;;5035218;28;20025;-61
2021/05/25 06:29:19;;;;;;;9.70;3.45;;;;;;;;;;5035159;28;20401;-58
2021/05/25 06:31:45;;;;;;;11.63;4.05;;;;;;;;;;5017175;28;20026;-63
2021/05/25 06:34:11;;;;;;;11.10;4.00;;;;;;;;;;5017276;28;20022;-62
2021/05/25 06:36:37;;;;;;;10.57;3.78;;;;;;;;;;5018406;28;20481;-61
2021/05/25 06:39:04;;;;;;;11.20;4.03;;;;;;;;;;5050401;28;20029;-62
2021/05/25 06:41:30;;;;;;;12.88;4.25;;;;;;;;;;5036936;28;20518;-60
2021/05/25 06:43:56;;;;;;;9.85;3.80;;;;;;;;;;5055447;28;20037;-60
2021/05/25 06:46:22;;;;;;;11.35;4.03;;;;;;;;;;5054942;28;20457;-63
2021/05/25 06:48:48;;;;;;;11.57;3.92;;;;;;;;;;5054779;28;20523;-62
2021/05/25 06:51:14;;;;;;;9.73;4.28;;;;;;;;;;5036859;28;20033;-65
2021/05/25 06:53:40;;;;;;;14.32;4.22;;;;;;;;;;5036995;28;20021;-62
2021/05/25 06:56:06;;;;;;;11.95;4.20;;;;;;;;;;5054505;28;20104;-62
2021/05/25 06:58:32;;;;;;;13.60;5.03;;;;;;;;;;5054197;28;20102;-62
2021/05/25 07:00:58;;;;;;;11.60;4.20;;;;;;;;;;5036276;28;20032;-60
2021/05/25 07:03:25;;;;;;;12.35;4.70;;;;;;;;;;5053902;28;20029;-59
2021/05/25 07:05:50;;;;;;;12.02;4.68;;;;;;;;;;5036489;28;20026;-63
2021/05/25 07:08:17;;;;;;;12.77;4.60;;;;;;;;;;5054534;28;20040;-61
2021/05/25 07:10:45;;;;;;;12.70;4.53;;;;;;;;;;5054528;28;20025;-62
2021/05/25 07:13:13;;;;;;;13.93;4.45;;;;;;;;;;5054425;28;20027;-62
2021/05/25 07:15:39;;;;;;;10.93;4.50;;;;;;;;;;5054778;28;20032;-60
2021/05/25 07:18:05;;;;;;;14.70;5.00;;;;;;;;;;5036712;28;20120;-63
2021/05/25 07:20:31;;;;;;;14.27;5.03;;;;;;;;;;5055746;28;20037;-61
2021/05/25 07:22:58;;;;;;;12.82;4.72;;;;;;;;;;5054437;28;20044;-62
2021/05/25 07:25:25;;;;;;;13.10;4.68;;;;;;;;;;5054219;28;20028;-61
2021/05/25 07:27:51;;;;;;;11.43;4.28;;;;;;;;;;5054359;28;20071;-60
2021/05/25 07:30:17;;;;;;;13.00;4.35;;;;;;;;;;5036623;28;20025;-62
2021/05/25 07:32:44;;;;;;;11.32;4.00;;;;;;;;;;5036175;28;20075;-61
2021/05/25 07:35:10;;;;;;;12.40;4.50;;;;;;;;;;5054164;28;20045;-62
2021/05/25 07:37:38;;;;;;;13.68;3.97;;;;;;;;;;5053745;28;20028;-59
2021/05/25 07:40:04;;;;;;;11.53;4.10;;;;;;;;;;5054485;28;20071;-61
2021/05/25 07:42:30;;;;;;;10.77;4.38;;;;;;;;;;5053337;28;20725;-61
2021/05/25 07:44:57;;;;;;;13.32;4.35;;;;;;;;;;5035671;28;20114;-61
2021/05/25 07:47:23;;;;;;;13.43;4.35;;;;;;;;;;5035490;28;20039;-62
2021/05/25 07:49:49;;;;;;;11.07;4.43;;;;;;;;;;5035402;28;20422;-62
2021/05/25 07:52:17;;;;;;;12.98;4.43;;;;;;;;;;5026323;28;20100;-62
2021/05/25 07:54:43;;;;;;;12.18;4.55;;;;;;;;;;5041757;28;20017;-62
2021/05/25 07:57:09;;;;;;;13.70;4.78;;;;;;;;;;5041716;28;20021;-60
2021/05/25 07:59:37;;;;;;;13.18;5.13;;;;;;;;;;5024906;28;20035;-62
2021/05/25 08:02:03;;;;;;;10.30;4.45;;;;;;;;;;5043479;28;20025;-62
2021/05/25 08:04:31;;;;;;;12.82;4.78;;;;;;;;;;5055396;28;20025;-62
2021/05/25 08:06:57;;;;;;;12.40;4.50;;;;;;;;;;5017812;28;20029;-62
2021/05/25 08:09:23;;;;;;;12.50;4.85;;;;;;;;;;5032979;28;20105;-61
2021/05/25 08:11:49;;;;;;;11.25;4.13;;;;;;;;;;5015261;28;20525;-60
2021/05/25 08:14:16;;;;;;;11.82;4.43;;;;;;;;;;5016867;28;20485;-65
2021/05/25 08:16:43;;;;;;;12.35;4.20;;;;;;;;;;5052837;28;20503;-66
2021/05/25 08:19:13;;;;;;;9.10;3.63;;;;;;;;;;5053189;28;20032;-64
2021/05/25 08:21:40;;;;;;;10.98;3.90;;;;;;;;;;5052129;28;20040;-65
2021/05/25 08:24:07;;;;;;;12.73;3.70;;;;;;;;;;5044502;28;20029;-65
2021/05/25 08:26:34;;;;;;;8.05;3.60;;;;;;;;;;5035550;28;20029;-65
2021/05/25 08:29:00;;;;;;;8.38;3.38;;;;;;;;;;5053370;28;20083;-67
2021/05/25 08:31:26;;;;;;;7.30;3.38;;;;;;;;;;5035659;28;20025;-65
2021/05/25 08:33:53;;;;;;;7.85;3.45;;;;;;;;;;5053918;28;20071;-65
2021/05/25 08:36:20;;;;;;;7.18;3.42;;;;;;;;;;5035787;28;20021;-65
2021/05/25 08:38:46;;;;;;;9.27;3.55;;;;;;;;;;5035578;28;20115;-64
2021/05/25 08:41:12;;;;;;;10.10;3.83;;;;;;;;;;5053253;28;20478;-64
2021/05/25 08:43:41;;;;;;;8.70;3.80;;;;;;;;;;5034739;28;20036;-64
2021/05/25 08:46:07;;;;;;;10.18;4.00;;;;;;;;;;5019160;28;20033;-64
2021/05/25 08:48:37;;;;;;;10.20;4.45;;;;;;;;;;5035681;28;20072;-65
2021/05/25 08:51:03;;;;;;;11.10;3.85;;;;;;;;;;5031892;28;20465;-64
2021/05/25 08:53:30;;;;;;;10.77;3.97;;;;;;;;;;5032035;28;20022;-55
2021/05/25 08:55:56;;;;;;;10.23;3.97;;;;;;;;;;5030198;28;20021;-59
2021/05/25 08:58:23;;;;;;;9.82;3.90;;;;;;;;;;5029462;28;20026;-60
2021/05/25 09:00:53;;;;;;;10.10;4.47;;;;;;;;;;5045388;28;20027;-60
2021/05/25 09:03:19;;;;;;;12.10;5.03;;;;;;;;;;5043607;28;20116;-57
2021/05/25 09:05:51;;;;;;;8.35;4.18;;;;;;;;;;5034226;28;20029;-57
2021/05/25 09:08:17;;;;;;;9.75;3.80;;;;;;;;;;5052329;28;20029;-54
2021/05/25 09:10:51;;;;;;;10.18;4.20;;;;;;;;;;5051687;28;20032;-58
2021/05/25 09:13:19;;;;;;;7.18;3.60;;;;;;;;;;5043224;28;20018;-59
2021/05/25 09:15:46;;;;;;;7.45;3.33;;;;;;;;;;5051703;28;20052;-58
2021/05/25 09:18:13;;;;;;;10.00;3.88;;;;;;;;;;5051575;28;20550;-55
2021/05/25 09:20:55;;;;;;;7.80;3.17;;;;;;;;;;5033238;28;20028;-53
2021/05/25 09:23:44;;;;;;;8.15;3.40;;;;;;;;;;5020129;28;20048;-52
2021/05/25 09:26:19;;;;;;;8.38;3.72;;;;;;;;;;5010325;28;20397;-55
2021/05/25 09:29:02;;;;;;;8.85;4.07;;;;;;;;;;5050416;28;20032;-55
2021/05/25 09:31:28;;;;;;;9.93;3.60;;;;;;;;;;5032195;28;20112;-52
2021/05/25 09:34:24;;;;;;;9.45;3.80;;;;;;;;;;5043419;28;20101;-55
2021/05/25 09:36:59;;;;;;;10.68;3.90;;;;;;;;;;5011972;28;20303;-54
2021/05/25 09:39:26;;;;;;;10.07;4.15;;;;;;;;;;5014572;28;20029;-52
2021/05/25 09:41:59;;;;;;;10.18;4.10;;;;;;;;;;5031887;28;20083;-53
2021/05/25 09:44:25;;;;;;;11.25;4.30;;;;;;;;;;5031851;28;20501;-51
2021/05/25 09:46:52;;;;;;;13.98;5.50;;;;;;;;;;5028834;28;20552;-50
2021/05/25 09:49:20;;;;;;;12.55;4.60;;;;;;;;;;5027616;28;20142;-50
2021/05/25 09:51:46;;;;;;;10.90;3.78;;;;;;;;;;5043449;28;20039;-55
2021/05/25 09:54:19;;;;;;;10.32;4.10;;;;;;;;;;5034217;28;20064;-56
2021/05/25 09:56:56;;;;;;;9.68;3.88;;;;;;;;;;5035932;28;20124;-55
2021/05/25 09:59:32;;;;;;;10.95;3.72;;;;;;;;;;5038427;28;20108;-58
2021/05/25 10:02:15;;;;;;;13.95;4.63;;;;;;;;;;5043823;28;20022;-54
2021/05/25 10:04:58;;;;;;;10.98;3.97;;;;;;;;;;5038938;28;20026;-60
2021/05/25 10:07:24;;;;;;;10.23;3.67;;;;;;;;;;5037845;28;20124;-57
2021/05/25 10:09:51;;;;;;;10.52;3.90;;;;;;;;;;5047688;28;20147;-58
2021/05/25 10:12:17;;;;;;;12.25;4.40;;;;;;;;;;5037251;28;20068;-54
2021/05/25 10:14:44;;;;;;;12.95;4.82;;;;;;;;;;5037958;28;20057;-53
2021/05/25 10:17:20;;;;;;;12.45;4.78;;;;;;;;;;5055681;28;20025;-53
2021/05/25 10:19:46;;;;;;;13.48;4.68;;;;;;;;;;5037832;28;20460;-51
2021/05/25 10:22:12;;;;;;;12.43;4.85;;;;;;;;;;5037328;28;20036;-56
2021/05/25 10:24:38;;;;;;;14.02;5.40;;;;;;;;;;5055373;28;20021;-54
2021/05/25 10:27:05;;;;;;;13.50;5.25;;;;;;;;;;5055510;28;20087;-58
2021/05/25 10:29:31;;;;;;;13.98;5.38;;;;;;;;;;5037405;28;20091;-58
2021/05/25 10:32:00;;;;;;;13.93;5.28;;;;;;;;;;5037367;28;20028;-59
2021/05/25 10:34:35;;;;;;;14.88;5.68;;;;;;;;;;5055363;28;20538;-53
2021/05/25 10:37:04;;;;;;;14.05;5.50;;;;;;;;;;5055534;28;20025;-57
2021/05/25 10:39:41;;;;;;;13.38;4.90;;;;;;;;;;5055261;28;20104;-55
2021/05/25 10:42:23;;;;;;;14.70;5.35;;;;;;;;;;5054657;28;20091;-55
2021/05/25 10:45:00;;;;;;;13.40;5.07;;;;;;;;;;5055061;28;20396;-57
2021/05/25 10:47:34;;;;;;;15.43;5.57;;;;;;;;;;5055069;28;20025;-56
2021/05/25 10:50:24;;;;;;;13.93;5.35;;;;;;;;;;5054440;28;20061;-54
2021/05/25 10:52:53;;;;;;;13.60;5.10;;;;;;;;;;5042691;28;20021;-53
2021/05/25 10:55:25;;;;;;;14.07;5.30;;;;;;;;;;5017451;28;20513;-54
2021/05/25 10:57:52;;;;;;;14.43;5.57;;;;;;;;;;5016998;28;20047;-57
2021/05/25 11:00:19;;;;;;;14.05;5.55;;;;;;;;;;5025476;28;20535;-58
2021/05/25 11:02:46;;;;;;;17.10;5.85;;;;;;;;;;5051616;28;20040;-57
2021/05/25 11:05:27;;;;;;;13.23;5.13;;;;;;;;;;4702892;28;10000307;-57
2021/05/25 11:07:54;;;;;;;13.40;4.97;;;;;;;;;;5051270;28;20100;-56
2021/05/25 11:10:29;;;;;;;13.38;5.68;;;;;;;;;;5032676;28;20128;-52
2021/05/25 11:13:14;;;;;;;15.50;6.00;;;;;;;;;;5043639;28;20121;-55
2021/05/25 11:15:59;;;;;;;14.68;5.22;;;;;;;;;;5013647;28;20021;-54
2021/05/25 11:18:26;;;;;;;14.23;5.97;;;;;;;;;;5016707;28;20293;-56
2021/05/25 11:21:15;;;;;;;13.98;5.68;;;;;;;;;;5048455;28;20291;-57
2021/05/25 11:23:41;;;;;;;;;;;;;;;;;;5016899;28;20069;-56
2021/05/25 11:26:07;;;;;;;14.20;6.63;;;;;;;;;;5013042;28;20363;-55
2021/05/25 11:28:52;;;;;;;11.10;4.63;;;;;;;;;;5031085;28;20112;-57
2021/05/25 11:31:37;;;;;;;10.40;4.18;;;;;;;;;;5031095;28;20033;-55
2021/05/25 11:34:04;;;;;;;9.88;3.80;;;;;;;;;;5031231;28;20021;-55
2021/05/25 11:36:30;;;;;;;8.55;3.70;;;;;;;;;;5013613;28;20096;-57
2021/05/25 11:38:56;;;;;;;8.90;3.95;;;;;;;;;;5013297;28;20025;-55
2021/05/25 11:41:22;;;;;;;14.32;8.10;;;;;;;;;;5035544;28;20111;-54
2021/05/25 11:43:49;;;;;;;14.73;8.80;;;;;;;;;;5044286;28;20376;-58
2021/05/25 11:46:15;;;;;;;15.60;8.25;;;;;;;;;;5040032;28;20022;-58
2021/05/25 11:48:41;;;;;;;14.65;9.82;;;;;;;;;;5034553;28;20035;-52
2021/05/25 11:51:10;;;;;;;16.75;9.10;;;;;;;;;;5012911;28;20025;-53
2021/05/25 11:53:39;;;;;;;17.92;9.40;;;;;;;;;;5030323;28;20385;-52
2021/05/25 11:56:11;;;;;;;14.40;9.60;;;;;;;;;;5035767;28;20044;-52
2021/05/25 11:58:36;;;;;;;16.98;10.50;;;;;;;;;;5041329;28;20033;-53
2021/05/25 12:01:03;;;;;;;16.95;11.63;;;;;;;;;;5040404;28;20033;-53
2021/05/25 12:03:37;;;;;;;15.85;11.38;;;;;;;;;;5039430;28;20138;-55
2021/05/25 12:06:03;;;;;;;15.70;11.48;;;;;;;;;;5043543;28;20040;-51
2021/05/25 12:08:29;;;;;;;15.95;10.40;;;;;;;;;;5021847;28;20132;-52
2021/05/25 12:10:55;;;;;;;16.58;10.48;;;;;;;;;;5033321;28;20040;-58
2021/05/25 12:13:21;;;;;;;15.88;9.77;;;;;;;;;;5029985;28;20025;-57
2021/05/25 12:15:48;;;;;;;14.27;8.52;;;;;;;;;;5012887;28;20033;-57
2021/05/25 12:18:16;;;;;;;14.63;7.77;;;;;;;;;;5012367;28;20514;-52
2021/05/25 12:20:42;;;;;;;14.63;7.63;;;;;;;;;;5030398;28;20268;-52
2021/05/25 12:23:09;;;;;;;14.40;7.35;;;;;;;;;;5029902;28;20021;-53
2021/05/25 12:25:35;;;;;;;17.60;7.90;;;;;;;;;;5030648;28;20034;-55
2021/05/25 12:28:01;;;;;;;15.35;7.55;;;;;;;;;;5021086;28;20094;-55
2021/05/25 12:30:28;;;;;;;14.77;7.95;;;;;;;;;;5021136;28;20028;-58
2021/05/25 12:32:54;;;;;;;16.13;8.02;;;;;;;;;;5042114;28;20075;-57
2021/05/25 12:35:21;;;;;;;15.65;7.43;;;;;;;;;;5041654;28;20134;-56
2021/05/25 12:38:00;;;;;;;15.32;7.50;;;;;;;;;;5024716;28;20370;-53
2021/05/25 12:40:26;;;;;;;14.55;7.30;;;;;;;;;;5035070;28;20021;-54
2021/05/25 12:42:52;;;;;;;14.77;7.70;;;;;;;;;;5069078;22;20052;-58
2021/05/25 12:45:19;;;;;;;13.80;6.90;;;;;;;;;;5047486;28;20033;-55
2021/05/25 12:47:58;;;;;;;14.45;7.30;;;;;;;;;;5051953;28;20020;-54
2021/05/25 12:50:28;;;;;;;16.67;7.00;;;;;;;;;;5048017;28;20029;-53
2021/05/25 12:53:04;;;;;;;15.55;7.63;;;;;;;;;;5033547;28;20013;-55
2021/05/25 12:55:31;;;;;;;16.23;8.85;;;;;;;;;;5048617;28;20568;-59
2021/05/25 12:57:57;;;;;;;19.58;8.63;;;;;;;;;;5051450;28;20025;-55
2021/05/25 13:00:34;;;;;;;15.20;7.97;;;;;;;;;;5051655;28;20097;-50
2021/05/25 13:03:02;;;;;;;15.65;8.05;;;;;;;;;;5050023;28;20033;-49
2021/05/25 13:05:29;;;;;;;12.93;6.65;;;;;;;;;;4968900;28;20792;-61
2021/05/25 13:08:02;;;;;;;14.80;7.23;;;;;;;;;;5012502;28;20026;-61
2021/05/25 13:10:31;;;;;;;14.95;7.10;;;;;;;;;;5013246;28;20776;-53
2021/05/25 13:13:09;;;;;;;16.38;9.55;;;14.60;99.90;;;;;;5014200;28;20120;-53
2021/05/25 13:15:37;;;;;;;16.52;9.23;;;11.00;99.90;;;;;;5012552;28;20140;-64
2021/05/25 13:18:03;;;;;;;14.80;8.82;;;11.00;99.90;;;;;;5011866;28;20033;-63
2021/05/25 13:20:29;;;;;;;14.30;8.27;;;11.30;99.90;;;;;;5013175;28;20033;-64
2021/05/25 13:22:55;;;;;;;16.08;8.98;;;11.80;99.90;;;;;;5013345;28;20025;-64
2021/05/25 13:25:30;;;;;;;15.55;9.00;;;11.90;99.90;;;;;;5012389;28;20079;-65
2021/05/25 13:27:56;;;;;;;15.57;8.80;;;12.20;99.90;;;;;;5012566;28;20688;-63
2021/05/25 13:30:42;;;;;;;16.42;8.98;;;12.60;99.90;;;;;;5018940;28;20025;-59
2021/05/25 13:33:08;;;;;;;15.80;8.75;;;13.40;99.90;;;;;;5034753;28;20104;-63
2021/05/25 13:35:34;;;;;;;16.75;8.93;;;14.00;99.90;;;;;;5035545;28;20148;-62
2021/05/25 13:38:02;;;;;;;15.60;8.98;;;14.30;99.90;;;;;;5038219;28;20044;-63
2021/05/25 13:40:28;;;;;;;;;;;13.70;99.90;;;;;;5038723;28;20033;-62
2021/05/25 13:42:54;;;;;;;15.00;7.88;;;12.90;99.90;;;;;;5036843;28;19909;-63
2021/05/25 13:45:19;;;;;;;15.68;8.32;;;12.30;99.90;;;;;;5037059;28;20028;-63
2021/05/25 13:47:46;;;;;;;15.45;8.32;;;11.50;99.90;;;;;;5037954;28;20115;-64
2021/05/25 13:50:25;;;;;;;15.52;8.50;;;11.20;99.90;;;;;;5038018;28;20017;-63
2021/05/25 13:52:53;;;;;;;17.77;8.73;;;10.90;99.90;;;;;;5037836;28;20101;-63
2021/05/25 13:55:20;;;;;;;17.50;8.70;;;10.70;99.90;;;;;;5036424;28;20044;-64
2021/05/25 13:57:47;;;;;;;17.45;9.00;;;10.40;99.90;;;;;;5037962;28;20490;-64
2021/05/25 14:00:24;;;;;;;16.38;10.45;;;10.40;99.90;;;;;;5036422;28;20035;-63
2021/05/25 14:02:50;;;;;;;18.13;9.60;;;10.10;99.90;;;;;;5037592;28;20049;-64
2021/05/25 14:05:15;;;;;;;17.52;10.40;;;9.90;99.90;;;;;;5037583;28;20065;-63
2021/05/25 14:07:45;;;;;;;16.50;11.02;;;9.70;99.90;;;;;;5036873;28;20025;-63
2021/05/25 14:10:11;;;;;;;17.55;13.00;;;9.60;99.90;;;;;;5021024;28;20175;-62
2021/05/25 14:12:37;;;;;;;20.05;12.60;;;9.60;99.90;;;;;;5020457;28;20440;-63
2021/05/25 14:15:04;;;;;;;18.67;12.60;;;9.70;99.90;;;;;;5021385;28;20040;-62
2021/05/25 14:17:29;;;;;;;20.23;12.88;;;9.80;99.90;;;;;;5019484;28;20060;-62
2021/05/25 14:19:55;;;;;;;20.33;14.45;;;9.70;99.90;;;;;;5016253;28;20116;-61
2021/05/25 14:22:20;;;;;;;21.02;17.77;;;9.60;99.90;;;;;;5027719;28;20951;-58
2021/05/25 14:24:46;;;;;;;24.60;19.13;;;9.20;99.90;;;;;;5037650;28;20037;-58
2021/05/25 14:27:11;;;;;;;21.30;18.77;;;9.10;99.90;;;;;;5029690;28;20815;-59
2021/05/25 14:29:37;;;;;;;20.52;18.33;;;9.00;99.90;;;;;;5029432;28;20056;-58